Time;durP1;ratioP1;P1;durP2;ratioP2;P2;SDS_P1;SDS_P2;PMS_P1;PMS_P2;Temp;Humidity;BMP_temperature;BMP_pressure;BME280_temperature;BME280_humidity;BME280_pressure;Samples;Min_cycle;Max_cycle;Signal;HPM_P1;HPM_P2
2022/07/17 00:01:58;;;;;;;6.55;3.30;;;12.40;99.90;;;;;;5043574;28;20060;-74
2022/07/17 00:04:23;;;;;;;10.65;3.38;;;12.30;99.90;;;;;;5062972;28;20048;-81
2022/07/17 00:06:57;;;;;;;6.85;2.50;;;12.30;99.90;;;;;;5045723;28;20195;-76
2022/07/17 00:09:22;;;;;;;8.10;2.40;;;12.30;99.90;;;;;;5033204;28;20456;-79
2022/07/17 00:11:48;;;;;;;8.10;2.67;;;12.30;99.90;;;;;;5035257;28;20205;-77
2022/07/17 00:14:13;;;;;;;10.02;2.80;;;12.20;99.90;;;;;;5037712;28;20392;-76
2022/07/17 00:16:39;;;;;;;6.30;2.20;;;12.20;99.90;;;;;;5049439;28;20098;-77
2022/07/17 00:19:06;;;;;;;4.75;2.55;;;12.50;99.90;;;;;;5046190;28;20038;-74
2022/07/17 00:21:32;;;;;;;7.45;2.80;;;12.20;99.90;;;;;;5031131;28;20037;-75
2022/07/17 00:23:58;;;;;;;5.15;2.50;;;12.20;99.90;;;;;;5045408;28;20075;-73
2022/07/17 00:26:24;;;;;;;6.70;2.50;;;12.10;99.90;;;;;;5052617;28;20139;-74
2022/07/17 00:28:50;;;;;;;7.10;2.80;;;12.10;99.90;;;;;;5055821;28;20480;-81
2022/07/17 00:31:15;;;;;;;9.27;3.42;;;12.10;99.90;;;;;;5023286;28;20037;-78
2022/07/17 00:33:41;;;;;;;13.27;4.45;;;12.00;99.90;;;;;;5039064;28;20130;-75
2022/07/17 00:36:07;;;;;;;9.60;4.47;;;11.90;99.90;;;;;;5060565;28;20082;-78
2022/07/17 00:38:34;;;;;;;9.32;4.72;;;12.20;99.90;;;;;;5017185;28;20041;-82
2022/07/17 00:41:00;;;;;;;10.98;4.03;;;11.90;99.90;;;;;;5016971;28;20056;-78
2022/07/17 00:43:26;;;;;;;11.02;3.85;;;11.90;99.90;;;;;;5035185;28;20029;-78
2022/07/17 00:45:57;;;;;;;8.40;3.95;;;11.90;99.90;;;;;;5019914;28;20076;-77
2022/07/17 00:48:23;;;;;;;7.85;4.10;;;12.00;99.90;;;;;;5066693;28;20047;-80
2022/07/17 00:50:49;;;;;;;10.10;4.65;;;11.90;99.90;;;;;;5067072;28;20047;-80
2022/07/17 00:53:15;;;;;;;10.25;4.63;;;11.90;99.90;;;;;;5034505;28;20041;-82
2022/07/17 00:59:06;;;;;;;15.95;4.53;;;11.90;99.90;;;;;;5036173;28;20048;-78
2022/07/17 01:01:32;;;;;;;8.75;3.95;;;11.80;99.90;;;;;;5033423;28;20395;-76
2022/07/17 01:03:58;;;;;;;9.52;4.30;;;11.70;99.90;;;;;;5035680;28;20040;-77
2022/07/17 01:06:24;;;;;;;12.85;4.35;;;11.70;99.90;;;;;;5035908;28;20120;-78
2022/07/17 01:08:50;;;;;;;11.50;4.35;;;11.70;99.90;;;;;;5022398;28;20080;-81
2022/07/17 01:11:16;;;;;;;7.30;4.05;;;11.70;99.90;;;;;;5029475;28;20061;-76
2022/07/17 01:13:42;;;;;;;10.25;4.00;;;11.90;99.90;;;;;;5016695;28;20045;-80
2022/07/17 01:16:08;;;;;;;9.60;4.32;;;11.70;99.90;;;;;;5036352;28;20120;-77
2022/07/17 01:18:34;;;;;;;6.93;4.05;;;11.80;99.90;;;;;;5011326;28;20406;-77
2022/07/17 01:21:07;;;;;;;6.45;3.90;;;11.70;99.90;;;;;;5069607;28;20052;-79
2022/07/17 01:23:33;;;;;;;9.15;4.60;;;11.50;99.90;;;;;;5042719;28;20043;-74
2022/07/17 01:25:58;;;;;;;7.30;4.28;;;11.40;99.90;;;;;;5022289;28;20032;-77
2022/07/17 01:28:25;;;;;;;10.32;4.30;;;11.50;99.90;;;;;;5034442;28;20094;-77
2022/07/17 01:30:51;;;;;;;9.07;3.90;;;11.50;99.90;;;;;;5018874;28;20040;-77
2022/07/17 01:33:18;;;;;;;11.35;4.10;;;11.50;99.90;;;;;;5018050;28;20076;-76
2022/07/17 01:35:44;;;;;;;6.75;3.95;;;11.50;99.90;;;;;;5032132;28;20157;-78
2022/07/17 01:38:10;;;;;;;6.35;3.65;;;11.50;99.90;;;;;;5059369;28;20073;-77
2022/07/17 01:40:36;;;;;;;11.75;5.15;;;11.50;99.90;;;;;;5048634;28;20045;-77
2022/07/17 01:43:02;;;;;;;14.55;6.40;;;11.40;99.90;;;;;;5049911;28;20135;-76
2022/07/17 01:45:28;;;;;;;13.95;6.90;;;11.40;99.90;;;;;;5012590;28;20132;-75
2022/07/17 01:47:53;;;;;;;17.88;6.65;;;11.40;99.90;;;;;;5034649;28;20045;-78
2022/07/17 01:50:19;;;;;;;15.50;6.32;;;11.30;99.90;;;;;;5066457;28;20393;-79
2022/07/17 01:52:45;;;;;;;11.23;5.38;;;11.30;99.90;;;;;;5059670;28;20041;-77
2022/07/17 01:55:14;;;;;;;12.10;4.88;;;11.20;99.90;;;;;;5018301;28;20037;-79
2022/07/17 01:57:41;;;;;;;8.65;4.28;;;11.20;99.90;;;;;;5044659;28;20041;-81
2022/07/17 02:00:11;;;;;;;6.70;3.80;;;11.20;99.90;;;;;;5011647;28;20486;-77
2022/07/17 02:02:37;;;;;;;8.43;3.47;;;11.10;99.90;;;;;;5040189;28;20033;-74
2022/07/17 02:05:03;;;;;;;8.50;3.75;;;11.10;99.90;;;;;;5028904;28;20453;-75
2022/07/17 02:07:29;;;;;;;6.25;3.58;;;11.10;99.90;;;;;;5053539;28;20045;-78
2022/07/17 02:09:54;;;;;;;9.35;4.00;;;11.10;99.90;;;;;;5032964;28;20037;-78
2022/07/17 02:12:20;;;;;;;7.88;3.58;;;11.00;99.90;;;;;;5075123;28;20032;-78
2022/07/17 02:14:46;;;;;;;10.13;3.45;;;11.00;99.90;;;;;;5038050;28;20041;-80
2022/07/17 02:17:11;;;;;;;7.57;3.55;;;11.00;99.90;;;;;;5045190;28;20045;-78
2022/07/17 02:19:37;;;;;;;8.25;3.50;;;11.00;99.90;;;;;;5008506;28;20033;-78
2022/07/17 02:22:03;;;;;;;9.40;3.67;;;11.30;99.90;;;;;;5032011;28;20064;-80
2022/07/17 02:24:29;;;;;;;7.10;3.35;;;11.00;99.90;;;;;;5067977;28;20041;-79
2022/07/17 02:26:54;;;;;;;8.98;3.72;;;10.90;99.90;;;;;;5030625;28;20499;-81
2022/07/17 02:29:20;;;;;;;8.30;3.42;;;11.00;99.90;;;;;;5018048;28;20479;-77
2022/07/17 02:31:46;;;;;;;7.22;3.58;;;10.90;99.90;;;;;;5011737;28;20041;-77
2022/07/17 02:34:11;;;;;;;7.45;3.45;;;11.00;99.90;;;;;;5049137;28;20056;-77
2022/07/17 02:36:37;;;;;;;7.65;3.28;;;11.10;99.90;;;;;;5048112;28;20044;-76
2022/07/17 02:39:04;;;;;;;6.70;3.10;;;10.80;99.90;;;;;;5033832;28;20051;-80
2022/07/17 02:41:30;;;;;;;7.72;3.60;;;11.00;99.90;;;;;;5051639;28;20053;-77
2022/07/17 02:43:59;;;;;;;6.85;3.05;;;11.00;99.90;;;;;;5017811;28;20064;-81
2022/07/17 02:46:27;;;;;;;6.07;3.38;;;11.00;99.90;;;;;;5010130;28;20041;-78
2022/07/17 02:49:05;;;;;;;8.65;3.58;;;11.00;99.90;;;;;;5027020;28;20044;-79
2022/07/17 02:51:34;;;;;;;10.88;3.35;;;11.00;99.90;;;;;;5054317;28;20079;-80
2022/07/17 02:54:00;;;;;;;9.90;3.50;;;11.00;99.90;;;;;;5064764;28;20037;-77
2022/07/17 02:56:26;;;;;;;7.22;3.55;;;11.00;99.90;;;;;;5036098;28;20086;-77
2022/07/17 02:58:52;;;;;;;6.55;3.60;;;11.20;99.90;;;;;;5022040;28;20044;-75
2022/07/17 03:01:17;;;;;;;6.97;3.05;;;11.00;99.90;;;;;;5017477;28;20101;-80
2022/07/17 03:03:44;;;;;;;10.15;3.20;;;11.30;99.90;;;;;;5017378;28;20120;-79
2022/07/17 03:06:10;;;;;;;10.18;3.20;;;10.90;99.90;;;;;;5048548;28;20083;-81
2022/07/17 03:08:37;;;;;;;9.75;3.50;;;11.00;99.90;;;;;;5014932;28;20037;-75
2022/07/17 03:11:03;;;;;;;10.38;3.35;;;10.90;99.90;;;;;;5033778;28;20041;-77
2022/07/17 03:13:28;;;;;;;7.60;3.20;;;11.20;99.90;;;;;;5050151;28;20052;-77
2022/07/17 03:15:54;;;;;;;11.45;3.22;;;11.20;99.90;;;;;;5025896;28;20048;-76
2022/07/17 03:18:20;;;;;;;7.88;3.17;;;10.90;99.90;;;;;;5033980;28;20487;-77
2022/07/17 03:20:46;;;;;;;7.28;3.25;;;10.90;99.90;;;;;;5017633;28;20116;-78
2022/07/17 03:23:11;;;;;;;8.65;3.33;;;10.80;99.90;;;;;;5066662;28;20051;-80
2022/07/17 03:25:37;;;;;;;11.27;3.30;;;10.80;99.90;;;;;;5057749;28;20472;-76
2022/07/17 03:28:03;;;;;;;7.18;3.20;;;10.80;99.90;;;;;;5014172;28;20064;-79
2022/07/17 03:30:28;;;;;;;8.57;3.60;;;10.80;99.90;;;;;;5066200;28;20128;-78
2022/07/17 03:32:54;;;;;;;9.85;3.58;;;10.70;99.90;;;;;;5055770;28;20052;-74
2022/07/17 03:35:20;;;;;;;9.23;3.35;;;10.70;99.90;;;;;;5045540;28;20052;-77
2022/07/17 03:37:45;;;;;;;7.03;3.33;;;10.70;99.90;;;;;;5005929;28;20113;-80
2022/07/17 03:40:11;;;;;;;7.30;3.30;;;10.70;99.90;;;;;;5029256;28;20029;-78
2022/07/17 03:42:55;;;;;;;8.95;3.20;;;10.80;99.90;;;;;;5046794;28;20047;-75
2022/07/17 03:45:21;;;;;;;8.32;3.75;;;10.80;99.90;;;;;;5046418;28;20049;-80
2022/07/17 03:47:47;;;;;;;13.07;3.38;;;10.90;99.90;;;;;;5012993;28;20789;-78
2022/07/17 03:50:12;;;;;;;7.20;3.30;;;10.90;99.90;;;;;;5012354;28;20049;-77
2022/07/17 03:52:38;;;;;;;6.95;3.22;;;10.90;99.90;;;;;;5041391;28;20048;-78
2022/07/17 03:55:04;;;;;;;7.47;3.88;;;11.00;99.90;;;;;;5038264;28;20049;-78
2022/07/17 03:57:35;;;;;;;7.13;3.60;;;11.00;99.90;;;;;;5036039;28;20179;-77
2022/07/17 04:00:05;;;;;;;9.48;3.50;;;11.10;99.90;;;;;;5030976;28;20092;-77
2022/07/17 04:02:33;;;;;;;13.95;4.20;;;11.20;99.90;;;;;;5013556;28;20052;-78
2022/07/17 04:04:59;;;;;;;10.23;4.05;;;11.20;99.90;;;;;;5044784;28;20044;-78
2022/07/17 04:07:27;;;;;;;8.45;3.35;;;11.30;99.90;;;;;;5015081;28;20064;-78
2022/07/17 04:09:58;;;;;;;7.07;3.70;;;11.30;99.90;;;;;;5044790;28;20114;-78
2022/07/17 04:12:25;;;;;;;8.15;3.40;;;11.40;99.90;;;;;;5023598;28;20041;-74
2022/07/17 04:14:50;;;;;;;8.60;3.90;;;11.40;99.90;;;;;;5026705;28;20476;-80
2022/07/17 04:17:16;;;;;;;7.13;3.58;;;11.40;99.90;;;;;;5058947;28;20052;-76
2022/07/17 04:19:42;;;;;;;9.82;3.50;;;11.50;99.90;;;;;;5061083;28;20040;-79
2022/07/17 04:22:07;;;;;;;9.57;3.60;;;11.50;99.90;;;;;;5026092;28;20044;-79
2022/07/17 04:24:33;;;;;;;8.93;3.80;;;11.50;99.90;;;;;;5012358;28;20056;-81
2022/07/17 04:26:59;;;;;;;10.90;3.90;;;11.60;99.90;;;;;;5029803;28;20048;-77
2022/07/17 04:29:24;;;;;;;6.43;3.42;;;11.60;99.90;;;;;;5057009;28;20063;-77
2022/07/17 04:31:51;;;;;;;7.03;3.72;;;11.60;99.90;;;;;;5021471;28;20057;-75
2022/07/17 04:34:17;;;;;;;8.15;3.58;;;11.80;99.90;;;;;;5037651;28;20140;-76
2022/07/17 04:36:43;;;;;;;5.18;3.90;;;11.70;99.90;;;;;;5034085;28;20115;-79
2022/07/17 04:39:08;;;;;;;9.38;3.97;;;11.70;99.90;;;;;;5035832;28;20037;-77
2022/07/17 04:41:34;;;;;;;9.40;3.60;;;11.90;99.90;;;;;;5030213;28;20060;-76
2022/07/17 04:44:00;;;;;;;5.45;3.33;;;12.00;99.90;;;;;;5015419;28;20032;-79
2022/07/17 04:46:25;;;;;;;11.07;3.47;;;11.90;99.90;;;;;;5044161;28;20115;-80
2022/07/17 04:48:51;;;;;;;8.05;3.92;;;12.00;99.90;;;;;;5019029;28;20110;-77
2022/07/17 04:51:17;;;;;;;10.75;3.40;;;11.90;99.90;;;;;;5036333;28;20125;-79
2022/07/17 04:53:42;;;;;;;13.45;3.35;;;12.00;99.90;;;;;;5052796;28;20131;-78
2022/07/17 04:56:08;;;;;;;14.68;4.15;;;12.00;99.90;;;;;;5018502;28;20372;-77
2022/07/17 04:58:34;;;;;;;8.77;3.25;;;12.00;99.90;;;;;;5051334;28;20037;-76
2022/07/17 05:01:00;;;;;;;7.32;3.20;;;12.10;99.90;;;;;;5026060;28;20036;-75
2022/07/17 05:03:25;;;;;;;7.30;3.10;;;12.10;99.90;;;;;;5009801;28;20029;-74
2022/07/17 05:05:51;;;;;;;5.93;3.05;;;12.10;99.90;;;;;;5022364;28;20469;-81
2022/07/17 05:08:18;;;;;;;10.30;2.90;;;12.10;99.90;;;;;;5052328;28;21315;-78
2022/07/17 05:10:45;;;;;;;7.43;2.92;;;12.10;99.90;;;;;;5019285;28;20045;-78
2022/07/17 05:13:12;;;;;;;8.57;2.85;;;12.20;99.90;;;;;;5042342;28;20434;-81
2022/07/17 05:15:38;;;;;;;10.02;3.10;;;12.10;99.90;;;;;;5019328;28;20045;-78
2022/07/17 05:18:04;;;;;;;5.47;3.10;;;12.30;99.90;;;;;;5040613;28;20066;-78
2022/07/17 05:20:29;;;;;;;8.18;2.95;;;12.20;99.90;;;;;;5009170;28;20072;-76
2022/07/17 05:22:56;;;;;;;9.05;2.90;;;12.60;99.90;;;;;;5055685;28;20036;-79
2022/07/17 05:25:22;;;;;;;4.53;2.80;;;12.30;99.90;;;;;;5020860;28;20029;-78
2022/07/17 05:27:48;;;;;;;7.90;2.80;;;12.30;99.90;;;;;;5034451;28;20385;-80
2022/07/17 05:30:14;;;;;;;5.82;2.70;;;12.40;99.90;;;;;;5047724;28;20059;-81
2022/07/17 05:32:39;;;;;;;8.35;3.10;;;12.50;99.90;;;;;;5046692;28;20056;-74
2022/07/17 05:35:05;;;;;;;8.23;2.88;;;12.50;99.90;;;;;;5016342;28;20050;-77
2022/07/17 05:37:34;;;;;;;4.95;2.78;;;12.60;99.90;;;;;;5018535;28;20232;-79
2022/07/17 05:40:00;;;;;;;5.93;2.70;;;12.70;99.90;;;;;;5033053;28;20037;-78
2022/07/17 05:42:26;;;;;;;7.50;2.92;;;12.90;99.90;;;;;;5027927;28;20515;-79
2022/07/17 05:44:51;;;;;;;6.45;2.90;;;13.00;99.90;;;;;;5017374;28;20053;-77
2022/07/17 05:47:17;;;;;;;10.68;3.20;;;13.10;99.90;;;;;;5015472;28;20139;-78
2022/07/17 05:49:42;;;;;;;9.32;2.90;;;13.20;99.90;;;;;;5041510;28;20373;-75
2022/07/17 05:52:08;;;;;;;11.98;2.78;;;13.30;99.90;;;;;;5034038;28;20040;-77
2022/07/17 05:54:34;;;;;;;5.43;2.80;;;13.40;99.90;;;;;;5034375;28;20393;-78
2022/07/17 05:57:00;;;;;;;11.55;2.92;;;13.50;99.90;;;;;;5052556;28;20040;-75
2022/07/17 05:59:26;;;;;;;8.82;3.08;;;13.60;99.90;;;;;;5021405;28;20036;-76
2022/07/17 06:01:52;;;;;;;6.88;2.40;;;13.80;99.90;;;;;;5025282;28;20069;-76
2022/07/17 06:04:19;;;;;;;9.32;2.50;;;13.80;99.90;;;;;;5033050;28;20068;-75
2022/07/17 06:06:45;;;;;;;13.13;3.30;;;13.90;99.90;;;;;;5025917;28;20056;-76
2022/07/17 06:09:10;;;;;;;11.50;2.53;;;14.00;99.90;;;;;;5027296;28;20208;-77
2022/07/17 06:15:39;;;;;;;6.43;2.40;;;14.20;99.90;;;;;;5064570;28;20055;-76
2022/07/17 06:18:05;;;;;;;11.55;2.72;;;14.40;99.90;;;;;;5026427;28;20052;-79
2022/07/17 06:20:31;;;;;;;7.75;2.53;;;14.50;99.90;;;;;;5014551;28;20416;-80
2022/07/17 06:22:57;;;;;;;8.75;2.55;;;14.70;99.90;;;;;;5016437;28;20051;-79
2022/07/17 06:25:23;;;;;;;8.50;2.33;;;14.80;99.90;;;;;;5018878;28;20115;-76
2022/07/17 06:27:49;;;;;;;12.93;2.25;;;15.10;99.90;;;;;;5029301;28;20080;-75
2022/07/17 06:30:15;;;;;;;8.65;2.15;;;15.20;99.90;;;;;;5052652;28;20483;-75
2022/07/17 06:32:42;;;;;;;4.95;1.38;;;15.30;99.90;;;;;;5016580;28;20037;-75
2022/07/17 06:35:08;;;;;;;7.55;1.55;;;15.60;99.90;;;;;;5021623;28;20097;-77
2022/07/17 06:37:34;;;;;;;8.40;1.40;;;15.90;99.90;;;;;;5028397;28;20033;-76
2022/07/17 06:40:00;;;;;;;9.35;1.33;;;16.00;99.90;;;;;;5028991;28;20086;-76
2022/07/17 06:42:26;;;;;;;12.30;1.50;;;16.30;99.90;;;;;;5027379;28;20095;-76
2022/07/17 06:44:51;;;;;;;5.65;1.02;;;16.40;99.90;;;;;;5060182;28;20088;-78
2022/07/17 06:47:17;;;;;;;7.88;1.55;;;16.50;99.90;;;;;;5030527;28;20040;-78
2022/07/17 06:49:43;;;;;;;8.48;1.40;;;16.80;99.90;;;;;;5031330;28;20036;-77
2022/07/17 06:52:09;;;;;;;8.55;1.67;;;16.80;99.90;;;;;;5028050;28;20455;-74
2022/07/17 06:54:35;;;;;;;6.13;1.25;;;16.80;99.90;;;;;;5010572;28;20068;-77
2022/07/17 06:57:01;;;;;;;6.38;1.55;;;16.80;99.90;;;;;;5047058;28;20504;-77
2022/07/17 06:59:29;;;;;;;7.88;1.33;;;16.80;99.90;;;;;;5045274;28;20111;-75
2022/07/17 07:01:55;;;;;;;9.90;1.60;;;16.80;99.90;;;;;;5045484;28;20099;-77
2022/07/17 07:04:21;;;;;;;6.75;1.75;;;16.90;99.90;;;;;;5049001;28;20049;-75
2022/07/17 07:06:46;;;;;;;11.10;1.92;;;17.00;99.90;;;;;;5031370;28;20048;-76
2022/07/17 07:09:12;;;;;;;9.70;1.70;;;17.10;99.90;;;;;;5063233;28;20072;-74
2022/07/17 07:11:38;;;;;;;8.80;1.50;;;17.20;99.90;;;;;;5045652;28;20135;-74
2022/07/17 07:14:05;;;;;;;7.28;1.73;;;17.10;99.90;;;;;;5066028;28;20041;-78
2022/07/17 07:16:30;;;;;;;7.57;1.50;;;17.20;99.90;;;;;;5043472;28;20041;-76
2022/07/17 07:18:56;;;;;;;5.05;1.40;;;17.30;99.90;;;;;;5028490;28;20029;-79
2022/07/17 07:21:24;;;;;;;9.35;1.35;;;17.40;99.90;;;;;;5013476;28;20123;-78
2022/07/17 07:23:50;;;;;;;8.27;1.52;;;17.60;99.90;;;;;;5017032;28;20037;-76
2022/07/17 07:26:19;;;;;;;9.05;1.98;;;17.60;99.90;;;;;;5044379;28;20156;-78
2022/07/17 07:28:44;;;;;;;8.52;1.73;;;17.70;99.90;;;;;;5044015;28;20136;-74
2022/07/17 07:31:11;;;;;;;6.68;1.23;;;17.70;99.90;;;;;;5032821;28;20032;-73
2022/07/17 07:33:37;;;;;;;7.05;1.50;;;17.70;99.90;;;;;;5034848;28;20057;-77
2022/07/17 07:36:04;;;;;;;5.10;1.50;;;17.70;99.90;;;;;;5042044;28;20037;-76
2022/07/17 07:38:29;;;;;;;5.65;1.45;;;17.80;99.90;;;;;;5046387;28;20107;-76
2022/07/17 07:40:55;;;;;;;5.28;1.17;;;17.80;99.90;;;;;;5025609;28;20037;-76
2022/07/17 07:43:21;;;;;;;5.45;1.15;;;17.80;99.90;;;;;;5026804;28;20037;-76
2022/07/17 07:45:47;;;;;;;8.35;1.33;;;17.90;99.90;;;;;;5055048;28;20041;-73
2022/07/17 07:48:12;;;;;;;4.40;1.00;;;18.00;99.90;;;;;;5026476;28;20048;-74
2022/07/17 07:50:38;;;;;;;5.95;1.40;;;18.10;99.90;;;;;;5043323;28;20084;-76
2022/07/17 07:53:07;;;;;;;5.20;1.25;;;18.30;99.90;;;;;;5038493;28;20068;-76
2022/07/17 07:55:32;;;;;;;9.15;1.60;;;18.30;99.90;;;;;;5044996;28;20080;-78
2022/07/17 07:58:26;;;;;;;7.80;1.48;;;18.50;99.90;;;;;;5032608;28;20063;-79
2022/07/17 08:00:52;;;;;;;14.60;1.38;;;18.70;99.90;;;;;;5065250;28;20053;-73
2022/07/17 08:03:17;;;;;;;6.78;1.40;;;18.80;99.90;;;;;;5033968;28;20467;-75
2022/07/17 08:05:43;;;;;;;6.82;1.27;;;18.50;99.90;;;;;;5065304;28;20047;-76
2022/07/17 08:08:09;;;;;;;4.53;1.15;;;18.60;99.90;;;;;;5015054;28;20044;-81
2022/07/17 08:10:35;;;;;;;12.30;1.52;;;18.40;99.90;;;;;;5004437;28;20057;-78
2022/07/17 08:13:02;;;;;;;7.43;1.30;;;18.50;99.90;;;;;;5029881;28;20072;-78
2022/07/17 08:15:28;;;;;;;5.43;1.20;;;18.30;99.90;;;;;;5027788;28;20053;-79
2022/07/17 08:17:54;;;;;;;13.38;1.40;;;18.20;99.90;;;;;;5044395;28;20136;-76
2022/07/17 08:20:20;;;;;;;6.05;1.17;;;18.20;99.90;;;;;;5063264;28;20137;-73
2022/07/17 08:22:47;;;;;;;7.68;1.42;;;18.20;99.90;;;;;;5026785;28;20132;-77
2022/07/17 08:25:13;;;;;;;5.13;1.08;;;18.10;99.90;;;;;;5029514;28;20056;-78
2022/07/17 08:27:41;;;;;;;6.60;1.27;;;18.10;99.90;;;;;;5038452;28;20475;-80
2022/07/17 08:30:09;;;;;;;9.38;1.33;;;18.20;99.90;;;;;;5040343;28;20033;-75
2022/07/17 08:32:36;;;;;;;8.00;1.40;;;18.10;99.90;;;;;;5023357;28;20535;-76
2022/07/17 08:35:02;;;;;;;5.40;1.20;;;18.20;99.90;;;;;;5037898;28;20049;-80
2022/07/17 08:37:28;;;;;;;6.70;1.40;;;18.30;99.90;;;;;;5060878;28;20451;-76
2022/07/17 08:39:55;;;;;;;7.75;1.60;;;18.40;99.90;;;;;;5038429;28;20149;-74
2022/07/17 08:42:21;;;;;;;11.52;1.60;;;18.40;99.90;;;;;;5040663;28;20045;-76
2022/07/17 08:44:46;;;;;;;5.80;1.40;;;18.50;99.90;;;;;;5059644;28;20063;-75
2022/07/17 08:47:13;;;;;;;9.38;1.45;;;18.50;99.90;;;;;;5031771;28;20545;-78
2022/07/17 08:49:49;;;;;;;11.57;1.88;;;18.40;99.90;;;;;;5041903;28;20088;-80
2022/07/17 08:52:15;;;;;;;5.82;1.33;;;18.30;99.90;;;;;;5054268;28;20060;-75
2022/07/17 08:54:41;;;;;;;4.32;1.13;;;18.40;99.90;;;;;;5047364;28;20040;-75
2022/07/17 08:57:09;;;;;;;7.68;1.42;;;18.40;99.90;;;;;;5016443;28;20037;-76
2022/07/17 08:59:35;;;;;;;4.97;1.23;;;18.50;99.90;;;;;;5041627;28;20490;-75
2022/07/17 09:02:03;;;;;;;5.78;1.25;;;18.50;99.90;;;;;;5054414;28;20208;-79
2022/07/17 09:04:28;;;;;;;6.45;1.70;;;18.70;99.90;;;;;;5047674;28;20048;-78
2022/07/17 09:07:02;;;;;;;6.18;1.38;;;18.90;99.90;;;;;;5030322;28;20045;-77
2022/07/17 09:09:29;;;;;;;6.20;1.25;;;18.90;99.90;;;;;;5049032;28;20118;-77
2022/07/17 09:11:55;;;;;;;9.60;1.20;;;19.00;99.90;;;;;;5024789;28;20040;-78
2022/07/17 09:14:22;;;;;;;5.40;1.27;;;19.10;99.90;;;;;;5044357;28;20464;-75
2022/07/17 09:16:53;;;;;;;7.18;1.20;;;19.10;99.90;;;;;;5007594;28;20096;-75
2022/07/17 09:19:30;;;;;;;7.18;1.40;;;19.00;99.90;;;;;;5059518;28;20161;-75
2022/07/17 09:22:12;;;;;;;8.45;1.42;;;18.90;99.90;;;;;;5031406;28;20032;-78
2022/07/17 09:24:47;;;;;;;6.68;1.50;;;18.90;99.90;;;;;;5063060;28;20053;-74
2022/07/17 09:27:14;;;;;;;5.13;1.08;;;19.20;99.90;;;;;;5039812;28;20052;-76
2022/07/17 09:29:54;;;;;;;6.53;1.40;;;19.30;99.90;;;;;;5014940;28;20081;-75
2022/07/17 09:32:23;;;;;;;5.88;1.45;;;19.20;99.90;;;;;;5034812;28;20086;-76
2022/07/17 09:34:50;;;;;;;4.68;1.27;;;19.30;99.90;;;;;;5025428;28;20476;-75
2022/07/17 09:37:16;;;;;;;6.35;1.40;;;19.40;99.90;;;;;;5057174;28;20052;-81
2022/07/17 09:39:42;;;;;;;4.38;1.20;;;19.60;99.90;;;;;;5013519;28;20033;-75
2022/07/17 09:42:22;;;;;;;7.20;1.02;;;19.70;99.90;;;;;;5069361;28;20375;-75
2022/07/17 09:45:06;;;;;;;4.03;1.25;;;19.80;99.90;;;;;;5029359;28;20135;-75
2022/07/17 09:47:33;;;;;;;4.80;1.15;;;19.90;99.90;;;;;;5047716;28;20489;-75
2022/07/17 09:50:05;;;;;;;5.13;1.00;;;20.00;99.90;;;;;;5062255;28;20140;-75
2022/07/17 09:52:33;;;;;;;4.63;1.23;;;20.20;99.90;;;;;;5067721;28;20132;-76
2022/07/17 09:55:00;;;;;;;6.35;1.42;;;20.10;99.90;;;;;;5032291;28;20099;-75
2022/07/17 09:57:29;;;;;;;5.82;1.30;;;20.50;99.90;;;;;;5017310;28;20033;-75
2022/07/17 09:59:58;;;;;;;3.45;1.10;;;20.70;99.90;;;;;;5031744;28;20080;-75
2022/07/17 10:02:24;;;;;;;4.93;1.45;;;20.80;99.90;;;;;;5035204;28;20052;-76
2022/07/17 10:04:52;;;;;;;5.38;1.17;;;21.00;99.90;;;;;;5031642;28;20048;-76
2022/07/17 10:07:20;;;;;;;3.78;1.20;;;21.00;99.90;;;;;;5016987;28;20084;-74
2022/07/17 10:09:46;;;;;;;12.07;1.65;;;20.90;99.90;;;;;;5017595;28;20057;-75
2022/07/17 10:12:13;;;;;;;4.55;1.40;;;21.20;99.90;;;;;;5048268;28;20135;-75
2022/07/17 10:14:41;;;;;;;3.25;1.30;;;21.40;99.90;;;;;;5065915;28;20079;-76
2022/07/17 10:17:11;;;;;;;6.10;1.40;;;21.70;99.90;;;;;;5016025;28;20084;-76
2022/07/17 10:19:47;;;;;;;5.25;1.40;;;21.90;99.90;;;;;;5024133;28;20443;-76
2022/07/17 10:22:13;;;;;;;6.90;1.48;;;22.10;99.90;;;;;;5031915;28;20033;-75
2022/07/17 10:24:54;;;;;;;4.63;1.13;;;22.30;99.90;;;;;;5014478;28;20420;-75
2022/07/17 10:27:24;;;;;;;6.18;1.50;;;22.40;99.90;;;;;;5034429;28;20514;-76
2022/07/17 10:30:06;;;;;;;3.97;1.48;;;22.70;99.90;;;;;;5064352;28;20053;-74
2022/07/17 10:32:33;;;;;;;5.40;1.30;;;22.70;99.90;;;;;;5033108;28;20068;-76
2022/07/17 10:35:07;;;;;;;5.32;1.23;;;22.50;99.90;;;;;;5012875;28;20064;-77
2022/07/17 10:37:36;;;;;;;8.90;1.40;;;22.70;99.90;;;;;;5046153;28;20065;-76
2022/07/17 10:40:22;;;;;;;6.20;1.40;;;22.60;99.90;;;;;;4997644;28;20116;-75
2022/07/17 10:43:01;;;;;;;5.78;1.20;;;22.40;99.90;;;;;;5012438;28;20484;-77
2022/07/17 10:45:37;;;;;;;5.15;1.30;;;22.60;99.90;;;;;;5014045;28;20103;-75
2022/07/17 10:48:10;;;;;;;3.85;1.00;;;22.60;99.90;;;;;;4997440;28;20060;-77
2022/07/17 10:50:38;;;;;;;4.35;1.30;;;22.40;99.90;;;;;;4994462;28;20060;-75
2022/07/17 10:53:05;;;;;;;4.57;1.35;;;22.40;99.90;;;;;;4996981;28;20053;-75
2022/07/17 10:55:33;;;;;;;4.13;1.30;;;22.30;99.90;;;;;;5029927;28;20144;-76
2022/07/17 10:57:59;;;;;;;2.42;1.10;;;22.40;99.90;;;;;;5044989;28;20072;-75
2022/07/17 11:00:25;;;;;;;3.33;1.15;;;22.40;99.90;;;;;;4996214;28;20049;-76
2022/07/17 11:02:51;;;;;;;3.95;1.33;;;22.80;99.90;;;;;;5011547;28;20047;-73
2022/07/17 11:05:17;;;;;;;6.50;1.50;;;22.80;99.90;;;;;;5044432;28;20122;-74
2022/07/17 11:07:58;;;;;;;3.67;1.00;;;23.30;99.90;;;;;;5045236;28;20049;-76
2022/07/17 11:10:27;;;;;;;6.68;1.50;;;23.50;99.90;;;;;;5004477;28;20080;-77
2022/07/17 11:13:11;;;;;;;6.03;2.10;;;23.30;99.90;;;;;;5001522;28;20088;-77
2022/07/17 11:15:40;;;;;;;5.13;1.42;;;23.80;99.90;;;;;;4989395;28;20050;-75
2022/07/17 11:18:17;;;;;;;3.85;1.23;;;24.10;99.90;;;;;;5008217;28;20056;-78
2022/07/17 11:20:52;;;;;;;3.58;1.13;;;24.50;99.90;;;;;;5007348;28;21592;-79
2022/07/17 11:23:18;;;;;;;;;;;24.50;99.90;;;;;;5035223;28;20124;-79
2022/07/17 11:26:03;;;;;;;3.97;1.00;;;24.00;99.90;;;;;;4991984;28;19947;-76
2022/07/17 11:28:39;;;;;;;3.95;1.38;;;24.20;99.90;;;;;;5000591;28;20053;-78
2022/07/17 11:31:18;;;;;;;4.15;1.58;;;24.50;99.90;;;;;;4986094;28;20050;-82
2022/07/17 11:33:56;;;;;;;3.53;1.25;;;24.80;99.90;;;;;;4977296;28;20466;-79
2022/07/17 11:36:24;;;;;;;6.55;1.33;;;24.90;99.50;;;;;;5012215;28;20084;-78
2022/07/17 11:38:52;;;;;;;2.75;1.38;;;25.00;99.90;;;;;;5042092;28;20048;-76
2022/07/17 11:41:20;;;;;;;4.07;1.20;;;25.10;99.90;;;;;;5041030;28;20059;-77
2022/07/17 11:43:47;;;;;;;4.80;1.27;;;25.30;99.90;;;;;;5013402;28;20450;-76
2022/07/17 11:46:13;;;;;;;3.35;1.30;;;25.70;99.60;;;;;;5012473;28;20060;-78
2022/07/17 11:48:43;;;;;;;4.05;1.50;;;25.80;99.70;;;;;;5015627;28;20041;-78
2022/07/17 11:51:10;;;;;;;3.67;1.20;;;26.00;98.60;;;;;;5031819;28;20040;-77
2022/07/17 11:53:37;;;;;;;3.00;1.30;;;25.80;98.40;;;;;;5045060;28;20041;-77
2022/07/17 11:56:04;;;;;;;3.33;1.25;;;25.80;98.80;;;;;;5011836;28;20139;-78
2022/07/17 11:58:41;;;;;;;2.78;1.00;;;26.10;98.90;;;;;;5030674;28;20036;-78
2022/07/17 12:01:07;;;;;;;2.33;1.00;;;26.20;98.00;;;;;;5013637;28;20059;-79
2022/07/17 12:03:33;;;;;;;3.58;1.42;;;26.30;98.80;;;;;;5054438;28;20041;-78
2022/07/17 12:05:59;;;;;;;3.67;1.50;;;26.50;98.70;;;;;;5031180;28;20045;-77
2022/07/17 12:08:24;;;;;;;6.43;1.40;;;26.70;98.60;;;;;;5049123;28;20065;-78
2022/07/17 12:11:06;;;;;;;6.32;1.50;;;27.00;98.00;;;;;;5039245;28;20136;-76
2022/07/17 12:13:43;;;;;;;2.63;1.23;;;27.10;98.10;;;;;;5034865;28;20115;-77
2022/07/17 12:16:30;;;;;;;5.35;1.70;;;27.10;96.70;;;;;;5013233;28;20041;-77
2022/07/17 12:19:01;;;;;;;3.35;1.67;;;27.00;97.50;;;;;;5025696;28;20068;-76
2022/07/17 12:21:27;;;;;;;4.03;1.65;;;27.20;97.10;;;;;;5022245;28;20416;-77
2022/07/17 12:24:06;;;;;;;2.45;1.60;;;27.30;97.20;;;;;;5010801;28;20499;-76
2022/07/17 12:26:33;;;;;;;3.08;1.65;;;27.40;96.90;;;;;;5042834;28;20545;-77
2022/07/17 12:28:59;;;;;;;3.85;1.70;;;27.30;97.10;;;;;;5028572;28;20609;-76
2022/07/17 12:31:25;;;;;;;2.85;1.80;;;27.40;96.60;;;;;;5008920;28;20059;-77
2022/07/17 12:33:53;;;;;;;3.92;1.70;;;27.60;96.70;;;;;;5059350;28;20037;-77
2022/07/17 12:36:20;;;;;;;4.30;2.00;;;27.30;97.00;;;;;;5054868;28;20044;-80
2022/07/17 12:38:46;;;;;;;3.78;1.75;;;27.40;96.90;;;;;;5055220;28;20057;-77
2022/07/17 12:41:15;;;;;;;3.92;1.55;;;27.50;97.00;;;;;;5040212;28;20049;-76
2022/07/17 12:43:41;;;;;;;3.38;2.10;;;27.80;97.00;;;;;;5058704;28;20128;-79
2022/07/17 12:46:08;;;;;;;5.72;1.90;;;28.10;96.20;;;;;;5023455;28;20056;-78
2022/07/17 12:48:34;;;;;;;3.28;1.60;;;27.90;95.70;;;;;;5039908;28;20049;-81
2022/07/17 12:51:00;;;;;;;3.58;2.28;;;27.50;96.20;;;;;;5024503;28;20078;-77
2022/07/17 12:53:26;;;;;;;4.78;1.98;;;27.60;96.20;;;;;;5062495;28;20044;-78
2022/07/17 12:55:52;;;;;;;5.05;2.10;;;27.80;96.40;;;;;;5045484;28;20045;-77